Time;durP1;ratioP1;P1;durP2;ratioP2;P2;SDS_P1;SDS_P2;PMS_P1;PMS_P2;Temp;Humidity;BMP_temperature;BMP_pressure;BME280_temperature;BME280_humidity;BME280_pressure;Samples;Min_cycle;Max_cycle;Signal;HPM_P1;HPM_P2
2021/12/15 00:00:03;;;;;;;1.95;1.70;;;18.80;52.70;;;;;;5113887;28;20031;-56
2021/12/15 00:02:29;;;;;;;2.28;1.52;;;18.80;52.70;;;;;;5113990;28;20035;-55
2021/12/15 00:04:56;;;;;;;2.83;1.73;;;18.80;52.70;;;;;;5113900;28;20390;-55
2021/12/15 00:07:23;;;;;;;1.88;1.67;;;18.80;52.70;;;;;;5113950;28;20042;-55
2021/12/15 00:09:49;;;;;;;2.10;1.70;;;18.80;52.70;;;;;;5113941;28;20043;-56
2021/12/15 00:12:15;;;;;;;2.20;1.77;;;18.80;52.70;;;;;;5114157;28;20023;-57
2021/12/15 00:14:42;;;;;;;1.95;1.48;;;18.80;52.70;;;;;;5113688;28;20466;-56
2021/12/15 00:17:09;;;;;;;1.63;1.52;;;18.80;52.70;;;;;;5113789;28;20020;-55
2021/12/15 00:19:36;;;;;;;1.42;1.30;;;18.80;52.70;;;;;;5113574;28;20066;-55
2021/12/15 00:22:02;;;;;;;2.45;1.40;;;18.80;52.80;;;;;;5095184;28;20012;-55
2021/12/15 00:24:29;;;;;;;2.05;1.40;;;18.80;52.80;;;;;;5095462;28;20497;-55
2021/12/15 00:26:56;;;;;;;2.40;1.70;;;18.80;52.80;;;;;;5113346;28;20012;-54
2021/12/15 00:29:24;;;;;;;1.75;1.40;;;18.80;52.70;;;;;;5113736;28;20090;-55
2021/12/15 00:31:50;;;;;;;1.63;1.52;;;18.80;52.80;;;;;;5113383;28;20090;-56
2021/12/15 00:34:19;;;;;;;2.33;1.80;;;18.70;52.70;;;;;;5113453;28;20016;-57
2021/12/15 00:36:46;;;;;;;1.80;1.60;;;18.70;52.70;;;;;;5114111;28;20020;-56
2021/12/15 00:39:15;;;;;;;1.60;1.50;;;18.70;52.80;;;;;;5113947;28;20091;-54
2021/12/15 00:41:41;;;;;;;1.98;1.60;;;18.70;52.80;;;;;;5113677;28;20012;-55
2021/12/15 00:44:07;;;;;;;1.60;1.40;;;18.70;53.30;;;;;;5113470;28;20057;-57
2021/12/15 00:46:35;;;;;;;2.15;1.67;;;18.70;52.80;;;;;;5113089;28;20091;-57
2021/12/15 00:49:02;;;;;;;1.70;1.45;;;18.70;52.70;;;;;;5113498;28;20008;-58
2021/12/15 00:51:27;;;;;;;1.88;1.60;;;18.70;52.80;;;;;;5113451;28;20019;-58
2021/12/15 00:53:54;;;;;;;2.28;1.90;;;18.70;52.80;;;;;;5113554;28;20081;-58
2021/12/15 00:56:20;;;;;;;1.60;1.50;;;18.70;52.80;;;;;;5113147;28;20051;-58
2021/12/15 00:58:46;;;;;;;2.70;1.90;;;18.70;52.80;;;;;;5113039;28;20023;-58
2021/12/15 01:01:12;;;;;;;2.85;1.70;;;18.70;52.80;;;;;;5114479;28;20020;-58
2021/12/15 01:03:37;;;;;;;2.28;1.73;;;18.70;52.80;;;;;;5098806;28;20386;-58
2021/12/15 01:06:09;;;;;;;3.72;1.67;;;18.70;52.70;;;;;;5117456;28;20125;-58
2021/12/15 01:08:39;;;;;;;1.55;1.40;;;18.70;52.80;;;;;;5116979;28;20019;-58
2021/12/15 01:19:48;;;;;;;1.87;1.70;;;18.70;52.90;;;;;;5017790;28;20033;-58
2021/12/15 01:22:15;;;;;;;3.20;1.80;;;18.60;52.80;;;;;;5053982;28;20040;-57
2021/12/15 01:25:15;;;;;;;1.90;1.70;;;18.60;52.90;;;;;;5040136;28;20025;-58
2021/12/15 01:28:00;;;;;;;2.28;2.00;;;18.60;52.90;;;;;;5053708;28;20025;-57
2021/12/15 01:30:28;;;;;;;2.25;1.60;;;18.60;52.90;;;;;;5037284;28;20117;-58
2021/12/15 01:32:54;;;;;;;2.58;1.77;;;18.60;52.90;;;;;;5053798;28;20017;-58
2021/12/15 01:35:20;;;;;;;2.30;1.88;;;18.60;52.90;;;;;;5053780;28;20493;-58
2021/12/15 01:37:46;;;;;;;2.00;1.80;;;18.60;52.90;;;;;;5037187;28;20545;-58
2021/12/15 01:40:19;;;;;;;1.70;1.60;;;18.60;52.90;;;;;;5053561;28;20033;-58
2021/12/15 01:42:45;;;;;;;1.67;1.58;;;18.60;52.90;;;;;;5053609;28;20033;-57
2021/12/15 01:48:08;;;;;;;2.33;1.92;;;18.60;52.90;;;;;;5053823;28;20032;-58
2021/12/15 01:50:34;;;;;;;2.10;1.90;;;18.60;52.90;;;;;;5108485;28;20053;-58
2021/12/15 01:53:01;;;;;;;1.67;1.58;;;18.60;52.90;;;;;;5116457;28;20024;-58
2021/12/15 01:55:27;;;;;;;1.70;1.42;;;18.60;52.90;;;;;;5116080;28;20020;-58
2021/12/15 01:57:53;;;;;;;2.13;1.60;;;18.60;52.90;;;;;;5116375;28;20141;-58
2021/12/15 02:00:21;;;;;;;2.00;1.67;;;18.60;52.90;;;;;;5098146;28;20035;-58
2021/12/15 02:02:50;;;;;;;1.95;1.75;;;18.50;52.90;;;;;;5098097;28;20012;-58
2021/12/15 02:05:15;;;;;;;1.77;1.67;;;18.60;52.90;;;;;;5116206;28;20201;-58
2021/12/15 02:07:42;;;;;;;2.55;1.70;;;18.50;52.90;;;;;;5115823;28;20016;-59
2021/12/15 02:10:09;;;;;;;1.70;1.60;;;18.60;52.90;;;;;;5115897;28;20044;-58
2021/12/15 02:12:38;;;;;;;1.60;1.50;;;18.60;52.90;;;;;;5115069;28;20062;-58
2021/12/15 02:15:11;;;;;;;1.88;1.70;;;18.60;52.90;;;;;;5116005;28;20440;-58
2021/12/15 02:17:38;;;;;;;2.05;1.52;;;18.60;52.90;;;;;;5115968;28;20013;-58
2021/12/15 02:20:05;;;;;;;2.13;1.92;;;18.50;52.90;;;;;;5115910;28;20028;-58
2021/12/15 02:22:32;;;;;;;2.55;1.63;;;18.50;52.90;;;;;;5097323;28;20357;-58
2021/12/15 02:24:57;;;;;;;2.53;1.92;;;18.60;53.00;;;;;;5115793;28;20042;-58
2021/12/15 02:27:30;;;;;;;1.90;1.80;;;18.60;52.90;;;;;;5115818;28;20049;-58
2021/12/15 02:30:03;;;;;;;2.05;1.83;;;18.60;52.90;;;;;;5098460;28;20546;-58
2021/12/15 02:32:47;;;;;;;2.10;1.70;;;18.50;52.90;;;;;;5115328;28;20015;-58
2021/12/15 02:38:01;;;;;;;1.77;1.67;;;18.50;52.90;;;;;;5077791;28;20382;-58
2021/12/15 02:40:28;;;;;;;1.58;1.48;;;18.50;52.90;;;;;;5115797;28;20027;-58
2021/12/15 02:42:53;;;;;;;3.22;2.10;;;18.50;53.00;;;;;;5115465;28;20533;-58
2021/12/15 02:45:21;;;;;;;2.47;1.95;;;18.50;53.00;;;;;;5115944;28;20091;-58
2021/12/15 02:47:47;;;;;;;2.20;1.80;;;18.50;53.00;;;;;;5116035;28;20103;-57
2021/12/15 02:50:17;;;;;;;1.70;1.60;;;18.50;53.00;;;;;;5115280;28;20445;-58
2021/12/15 02:52:44;;;;;;;1.83;1.70;;;18.50;53.00;;;;;;5115646;28;20015;-57
2021/12/15 02:55:10;;;;;;;2.55;1.80;;;18.50;53.00;;;;;;5115513;28;20030;-58
2021/12/15 02:57:37;;;;;;;2.10;1.83;;;18.50;53.00;;;;;;5097265;28;20043;-58
2021/12/15 03:00:16;;;;;;;1.40;1.30;;;18.40;53.00;;;;;;5115197;28;20381;-58
2021/12/15 03:05:29;;;;;;;1.85;1.63;;;18.40;53.00;;;;;;5115074;28;20058;-58
2021/12/15 03:08:06;;;;;;;1.75;1.65;;;18.50;53.00;;;;;;5114808;28;20031;-58
2021/12/15 03:16:01;;;;;;;1.88;1.55;;;18.40;52.90;;;;;;5099346;28;20035;-58
2021/12/15 03:18:27;;;;;;;1.63;1.50;;;18.50;52.70;;;;;;5096800;28;20036;-58
2021/12/15 03:20:57;;;;;;;3.97;1.80;;;18.60;52.50;;;;;;5114546;28;20028;-58
2021/12/15 03:23:27;;;;;;;1.85;1.67;;;18.70;52.30;;;;;;5114198;28;20007;-57
2021/12/15 03:25:54;;;;;;;1.77;1.67;;;18.80;52.20;;;;;;5114407;28;20047;-58
2021/12/15 03:36:52;;;;;;;2.08;1.60;;;19.10;51.50;;;;;;5114666;28;20477;-58
2021/12/15 03:39:18;;;;;;;1.73;1.63;;;19.10;51.30;;;;;;5114017;28;20418;-58
2021/12/15 03:41:44;;;;;;;1.45;1.30;;;19.30;51.20;;;;;;5114056;28;20046;-58
2021/12/15 03:44:09;;;;;;;2.17;1.85;;;19.30;50.90;;;;;;5095897;28;20090;-58
2021/12/15 03:46:35;;;;;;;2.65;1.70;;;19.30;50.90;;;;;;5114083;28;20020;-58
2021/12/15 03:49:01;;;;;;;1.88;1.60;;;19.40;50.70;;;;;;5079178;28;20530;-58
2021/12/15 03:51:27;;;;;;;1.92;1.73;;;19.50;50.50;;;;;;5114726;28;20019;-60
2021/12/15 03:53:53;;;;;;;1.45;1.35;;;19.60;50.40;;;;;;5114111;28;20016;-58
2021/12/15 03:56:19;;;;;;;1.65;1.55;;;19.60;50.30;;;;;;5114517;28;20020;-58
2021/12/15 03:58:46;;;;;;;1.90;1.70;;;19.70;50.10;;;;;;5114983;28;20057;-58
2021/12/15 04:01:15;;;;;;;1.80;1.70;;;19.80;50.00;;;;;;5114541;28;20035;-57
2021/12/15 04:03:43;;;;;;;1.50;1.40;;;19.80;49.70;;;;;;5114692;28;20035;-58
2021/12/15 04:06:13;;;;;;;2.03;1.60;;;19.90;49.60;;;;;;5114987;28;20054;-58
2021/12/15 04:08:40;;;;;;;1.63;1.50;;;20.00;49.40;;;;;;5114506;28;20018;-58
2021/12/15 04:11:07;;;;;;;1.55;1.40;;;20.10;49.20;;;;;;5096565;28;20036;-58
2021/12/15 04:13:34;;;;;;;1.50;1.40;;;20.20;49.00;;;;;;5114639;28;20016;-58
2021/12/15 04:16:06;;;;;;;1.80;1.52;;;20.30;48.90;;;;;;5114146;28;20015;-58
2021/12/15 04:18:32;;;;;;;1.38;1.23;;;20.40;48.70;;;;;;5114094;28;20065;-58
2021/12/15 04:21:06;;;;;;;3.42;1.88;;;20.50;48.50;;;;;;5098793;28;20476;-58
2021/12/15 04:23:32;;;;;;;1.77;1.52;;;20.50;48.30;;;;;;5115008;28;20069;-58
2021/12/15 04:26:00;;;;;;;2.47;1.85;;;20.60;48.10;;;;;;5114566;28;20068;-58
2021/12/15 04:28:28;;;;;;;1.52;1.42;;;20.70;48.00;;;;;;5114289;28;20030;-58
2021/12/15 04:30:56;;;;;;;1.48;1.35;;;20.80;47.80;;;;;;5114261;28;20050;-58
2021/12/15 04:33:40;;;;;;;1.73;1.63;;;20.80;47.60;;;;;;5114384;28;20525;-58
2021/12/15 04:36:08;;;;;;;1.83;1.55;;;20.90;47.50;;;;;;5113399;28;20034;-59
2021/12/15 04:38:34;;;;;;;1.90;1.70;;;21.00;47.30;;;;;;5115575;28;20034;-58
2021/12/15 04:41:05;;;;;;;1.48;1.38;;;21.10;47.10;;;;;;5079088;28;20028;-58
2021/12/15 04:43:34;;;;;;;1.52;1.42;;;21.10;47.00;;;;;;5113847;28;20020;-59
2021/12/15 04:46:01;;;;;;;1.63;1.38;;;21.20;46.90;;;;;;5114551;28;20034;-58
2021/12/15 04:48:26;;;;;;;1.80;1.40;;;21.30;46.80;;;;;;5095916;28;20053;-58
2021/12/15 04:50:53;;;;;;;1.60;1.50;;;21.40;46.70;;;;;;5113851;28;20016;-58
2021/12/15 04:53:18;;;;;;;1.95;1.58;;;21.40;46.60;;;;;;5079422;28;20152;-59
2021/12/15 04:55:44;;;;;;;1.88;1.58;;;21.40;46.50;;;;;;5096596;28;20065;-58
2021/12/15 04:58:11;;;;;;;1.73;1.50;;;21.50;46.50;;;;;;5114582;28;20024;-58
2021/12/15 05:00:52;;;;;;;1.40;1.30;;;21.50;46.30;;;;;;5114305;28;20028;-59
2021/12/15 05:03:20;;;;;;;1.63;1.40;;;21.50;46.30;;;;;;5114517;28;20396;-58
2021/12/15 05:05:46;;;;;;;1.65;1.40;;;21.60;46.30;;;;;;5096020;28;20012;-58
2021/12/15 05:08:14;;;;;;;1.50;1.40;;;21.60;46.20;;;;;;5095258;28;20014;-60
2021/12/15 05:10:40;;;;;;;1.80;1.70;;;21.70;46.20;;;;;;5092155;28;20105;-58
2021/12/15 05:13:06;;;;;;;1.73;1.63;;;21.70;46.10;;;;;;5093499;28;20031;-58
2021/12/15 05:15:33;;;;;;;1.73;1.55;;;21.80;46.10;;;;;;5093142;28;20078;-58
2021/12/15 05:17:58;;;;;;;1.42;1.33;;;21.80;46.00;;;;;;5092665;28;20463;-58
2021/12/15 05:20:25;;;;;;;1.55;1.38;;;21.80;46.00;;;;;;5092528;28;20540;-58
2021/12/15 05:22:53;;;;;;;1.20;1.10;;;21.80;45.90;;;;;;5092790;28;20673;-59
2021/12/15 05:25:20;;;;;;;1.77;1.38;;;21.90;45.80;;;;;;5093462;28;20108;-58
2021/12/15 05:27:46;;;;;;;1.70;1.40;;;21.90;45.80;;;;;;5093579;28;20025;-58
2021/12/15 05:30:13;;;;;;;1.70;1.50;;;21.90;45.80;;;;;;5093208;28;20024;-58
2021/12/15 05:32:38;;;;;;;1.60;1.50;;;22.00;45.70;;;;;;5092893;28;20024;-59
2021/12/15 05:35:05;;;;;;;1.55;1.30;;;22.00;45.70;;;;;;5094391;28;20122;-58
2021/12/15 05:37:31;;;;;;;2.05;1.65;;;22.00;45.70;;;;;;5093790;28;20687;-58
2021/12/15 05:39:57;;;;;;;1.52;1.33;;;22.00;45.60;;;;;;5092118;28;20389;-58
2021/12/15 05:42:23;;;;;;;1.50;1.40;;;22.10;45.70;;;;;;5093283;28;20019;-58
2021/12/15 05:44:49;;;;;;;1.67;1.50;;;22.10;45.60;;;;;;5092959;28;20008;-58
2021/12/15 05:47:15;;;;;;;1.40;1.30;;;22.10;45.50;;;;;;5093057;28;20052;-58
2021/12/15 05:49:40;;;;;;;1.55;1.23;;;22.20;45.60;;;;;;5096292;28;20008;-58
2021/12/15 05:52:06;;;;;;;1.58;1.48;;;22.20;45.50;;;;;;5096161;28;20073;-58
2021/12/15 05:54:32;;;;;;;2.00;1.35;;;22.20;45.50;;;;;;5094849;28;20528;-59
2021/12/15 05:56:58;;;;;;;2.60;1.35;;;22.20;45.40;;;;;;5094985;28;20048;-58
2021/12/15 05:59:24;;;;;;;1.67;1.50;;;22.20;45.40;;;;;;5096377;28;20019;-58
2021/12/15 06:01:50;;;;;;;1.60;1.50;;;22.30;45.40;;;;;;5096007;28;20430;-58
2021/12/15 06:04:16;;;;;;;1.50;1.40;;;22.30;45.40;;;;;;5095688;28;20008;-56
2021/12/15 06:06:42;;;;;;;1.38;1.27;;;22.30;45.40;;;;;;5095850;28;20016;-57
2021/12/15 06:09:09;;;;;;;2.00;1.70;;;22.30;45.40;;;;;;5101765;28;20466;-57
2021/12/15 06:11:35;;;;;;;2.22;1.50;;;22.30;45.30;;;;;;5098293;28;20470;-57
2021/12/15 06:14:04;;;;;;;1.42;1.33;;;22.40;45.30;;;;;;5116490;28;20116;-57
2021/12/15 06:16:30;;;;;;;1.50;1.40;;;22.40;45.30;;;;;;5116414;28;20043;-56
2021/12/15 06:18:55;;;;;;;1.50;1.20;;;22.40;45.30;;;;;;5097642;28;20062;-58
2021/12/15 06:21:21;;;;;;;1.80;1.42;;;22.40;45.30;;;;;;5115845;28;20034;-55
2021/12/15 06:23:48;;;;;;;1.48;1.38;;;22.40;45.20;;;;;;5116195;28;20050;-59
2021/12/15 06:26:14;;;;;;;1.75;1.42;;;22.50;45.30;;;;;;5116131;28;20011;-61
2021/12/15 06:28:39;;;;;;;2.72;1.40;;;22.50;45.20;;;;;;5115702;28;20088;-59
2021/12/15 06:31:07;;;;;;;2.47;1.42;;;22.50;45.20;;;;;;5115278;28;20054;-59
2021/12/15 06:33:34;;;;;;;1.48;1.38;;;22.50;45.20;;;;;;5115890;28;20100;-59
2021/12/15 06:36:01;;;;;;;1.67;1.58;;;22.50;45.10;;;;;;5097491;28;20099;-59
2021/12/15 06:38:53;;;;;;;1.50;1.40;;;22.50;45.20;;;;;;5116189;28;20032;-59
2021/12/15 06:41:19;;;;;;;2.05;1.45;;;22.60;45.20;;;;;;5115594;28;20031;-58
2021/12/15 06:43:48;;;;;;;2.05;1.60;;;22.60;45.10;;;;;;5115389;28;20355;-59
2021/12/15 06:59:46;;;;;;;1.55;1.45;;;22.60;45.10;;;;;;5114179;28;20035;-59
2021/12/15 07:02:12;;;;;;;3.20;2.58;;;22.70;45.10;;;;;;5096162;28;20020;-59
2021/12/15 07:04:39;;;;;;;4.68;2.95;;;22.70;44.70;;;;;;5114099;28;20004;-59
2021/12/15 07:07:05;;;;;;;5.78;2.78;;;22.80;44.50;;;;;;5114253;28;20470;-59
2021/12/15 07:09:31;;;;;;;4.47;2.60;;;22.70;44.60;;;;;;5113845;28;20046;-59
2021/12/15 07:11:58;;;;;;;5.15;2.65;;;22.60;44.80;;;;;;5095438;28;20032;-58
2021/12/15 07:14:23;;;;;;;5.63;2.55;;;22.60;44.90;;;;;;5095094;28;20043;-59
2021/12/15 07:16:52;;;;;;;2.65;2.05;;;22.60;44.90;;;;;;5113255;28;20107;-58
2021/12/15 07:22:06;;;;;;;3.45;2.20;;;22.70;44.90;;;;;;5112454;28;20067;-58
2021/12/15 07:24:33;;;;;;;3.60;2.00;;;22.70;45.00;;;;;;5113630;28;20011;-57
2021/12/15 07:26:59;;;;;;;3.47;1.90;;;22.70;45.00;;;;;;5113662;28;20033;-59
2021/12/15 07:29:26;;;;;;;2.20;1.70;;;22.60;45.10;;;;;;5113482;28;20016;-58
2021/12/15 07:31:52;;;;;;;3.25;2.05;;;22.60;45.20;;;;;;5113481;28;20101;-58
2021/12/15 07:34:18;;;;;;;3.05;1.90;;;22.60;45.30;;;;;;5095996;28;20016;-58
2021/12/15 07:36:44;;;;;;;3.75;2.30;;;22.50;45.40;;;;;;5095941;28;20069;-58
2021/12/15 07:39:11;;;;;;;3.28;2.20;;;22.50;45.50;;;;;;5095656;28;20114;-58
2021/12/15 07:41:48;;;;;;;3.20;2.30;;;22.40;45.60;;;;;;5096548;28;20039;-58
2021/12/15 07:44:14;;;;;;;2.42;1.80;;;22.40;45.80;;;;;;5113950;28;20020;-60
2021/12/15 07:46:39;;;;;;;2.35;1.90;;;22.30;45.90;;;;;;5078980;28;20008;-60
2021/12/15 07:49:08;;;;;;;4.25;1.83;;;22.20;46.00;;;;;;5096452;28;20023;-59
2021/12/15 07:51:33;;;;;;;3.13;2.10;;;22.20;46.10;;;;;;5080114;28;20023;-59
2021/12/15 07:53:59;;;;;;;3.90;2.00;;;22.20;46.20;;;;;;5095567;28;20038;-60
2021/12/15 07:56:25;;;;;;;2.25;1.80;;;22.20;46.20;;;;;;5113786;28;20030;-59
2021/12/15 07:58:51;;;;;;;3.45;2.08;;;22.20;46.30;;;;;;5113886;28;20033;-59
2021/12/15 08:01:18;;;;;;;3.15;1.80;;;22.10;46.30;;;;;;5113856;28;20028;-59
2021/12/15 08:03:44;;;;;;;4.32;2.08;;;22.20;46.40;;;;;;5113451;28;20016;-59
2021/12/15 08:06:10;;;;;;;2.42;2.10;;;22.10;46.40;;;;;;5113599;28;20061;-58
2021/12/15 08:08:36;;;;;;;4.10;1.80;;;22.10;46.50;;;;;;5113854;28;20023;-59
2021/12/15 08:11:05;;;;;;;4.15;1.95;;;22.10;46.50;;;;;;5094901;28;20051;-59
2021/12/15 08:13:34;;;;;;;2.13;1.80;;;22.10;46.60;;;;;;5078771;28;20024;-58
2021/12/15 08:16:01;;;;;;;2.83;2.10;;;22.10;46.50;;;;;;5113773;28;20354;-59
2021/12/15 08:18:27;;;;;;;4.78;2.03;;;22.10;46.60;;;;;;5113633;28;20035;-59
2021/12/15 08:20:53;;;;;;;2.78;1.75;;;22.10;46.60;;;;;;5113148;28;20379;-59
2021/12/15 08:23:19;;;;;;;3.05;1.77;;;22.10;46.50;;;;;;5094874;28;20059;-58
2021/12/15 08:25:45;;;;;;;3.90;2.13;;;22.10;46.60;;;;;;5095178;28;20094;-59
2021/12/15 08:28:11;;;;;;;1.75;1.50;;;22.10;46.60;;;;;;5095359;28;20031;-59
2021/12/15 08:30:41;;;;;;;2.00;1.80;;;22.10;46.60;;;;;;5112958;28;20115;-59
2021/12/15 08:33:10;;;;;;;4.25;1.98;;;22.20;46.60;;;;;;5113141;28;20107;-59
2021/12/15 08:35:43;;;;;;;3.20;1.90;;;22.10;46.60;;;;;;5112619;28;20099;-59
2021/12/15 08:38:12;;;;;;;1.73;1.45;;;22.10;46.70;;;;;;5112848;28;20072;-59
2021/12/15 08:40:38;;;;;;;3.70;1.77;;;22.10;46.70;;;;;;5113544;28;20024;-58
2021/12/15 08:43:04;;;;;;;3.53;2.33;;;22.10;46.80;;;;;;5094865;28;20020;-59
2021/12/15 08:45:30;;;;;;;4.10;1.75;;;22.10;46.80;;;;;;5112386;28;20012;-59
2021/12/15 08:47:58;;;;;;;3.05;1.58;;;22.10;46.80;;;;;;5112876;28;20024;-59
2021/12/15 08:50:26;;;;;;;3.05;2.15;;;22.10;46.80;;;;;;5112510;28;20016;-59
2021/12/15 08:52:52;;;;;;;1.83;1.73;;;22.10;46.80;;;;;;5112780;28;20111;-59
2021/12/15 08:55:18;;;;;;;2.25;1.67;;;22.10;46.80;;;;;;5094353;28;20019;-58
2021/12/15 08:57:49;;;;;;;2.20;2.00;;;22.10;46.90;;;;;;5112751;28;20023;-58
2021/12/15 09:00:16;;;;;;;1.80;1.70;;;22.10;46.80;;;;;;5095121;28;20024;-59
2021/12/15 09:02:42;;;;;;;2.28;1.70;;;22.10;46.90;;;;;;5094236;28;20065;-58
2021/12/15 09:05:08;;;;;;;4.38;1.63;;;22.00;46.90;;;;;;5093936;28;20016;-58
2021/12/15 09:07:34;;;;;;;2.42;1.95;;;22.10;47.00;;;;;;5093657;28;20016;-58
2021/12/15 09:10:00;;;;;;;2.10;1.80;;;22.10;46.90;;;;;;5111786;28;20046;-58
2021/12/15 09:12:26;;;;;;;2.45;1.73;;;22.10;46.90;;;;;;5093997;28;20019;-57
2021/12/15 09:14:52;;;;;;;2.40;1.92;;;22.10;46.90;;;;;;5112243;28;20066;-57
2021/12/15 09:17:17;;;;;;;2.85;1.85;;;22.10;47.50;;;;;;5113204;28;20023;-59
2021/12/15 09:19:43;;;;;;;2.47;1.85;;;22.10;46.90;;;;;;5112273;28;20047;-58
2021/12/15 09:22:10;;;;;;;4.22;1.88;;;22.10;46.90;;;;;;5113149;28;20015;-58
2021/12/15 09:24:36;;;;;;;2.90;1.63;;;22.10;46.90;;;;;;5115906;28;20099;-59
2021/12/15 09:27:02;;;;;;;3.05;2.13;;;22.10;46.90;;;;;;5097575;28;20043;-58
2021/12/15 09:29:27;;;;;;;2.13;1.92;;;22.10;46.90;;;;;;5115923;28;20050;-58
2021/12/15 09:31:54;;;;;;;3.17;1.88;;;22.10;47.00;;;;;;5115740;28;20019;-58
2021/12/15 09:34:20;;;;;;;3.97;1.88;;;22.10;47.00;;;;;;5116001;28;20019;-59
2021/12/15 09:36:47;;;;;;;2.38;1.63;;;22.10;46.90;;;;;;5115595;28;20500;-57
2021/12/15 09:39:15;;;;;;;2.22;1.95;;;22.10;46.90;;;;;;5116119;28;20019;-58
2021/12/15 09:41:41;;;;;;;2.17;1.98;;;22.10;46.90;;;;;;5115678;28;20482;-57
2021/12/15 09:44:11;;;;;;;2.28;2.00;;;22.10;47.00;;;;;;5115755;28;20043;-57
2021/12/15 09:47:02;;;;;;;3.20;2.30;;;22.10;47.00;;;;;;5098321;28;20099;-59
2021/12/15 10:03:03;;;;;;;3.60;1.70;;;22.10;47.00;;;;;;5115955;28;20034;-57
2021/12/15 10:19:22;;;;;;;2.08;1.67;;;22.10;47.10;;;;;;5116016;28;20080;-57
2021/12/15 10:22:17;;;;;;;;;;;22.10;47.10;;;;;;5116044;28;20026;-56
2021/12/15 10:24:53;;;;;;;1.90;1.70;;;22.10;47.10;;;;;;5078085;28;19899;-55
2021/12/15 10:27:31;;;;;;;2.00;1.67;;;22.20;47.00;;;;;;5097082;28;20466;-58
2021/12/15 10:29:59;;;;;;;1.80;1.58;;;22.10;47.00;;;;;;5115432;28;20128;-56
2021/12/15 10:32:30;;;;;;;2.55;1.80;;;22.20;47.00;;;;;;5115750;28;20068;-56
2021/12/15 10:35:04;;;;;;;3.25;1.77;;;22.20;47.00;;;;;;5114540;28;20019;-55
2021/12/15 10:37:31;;;;;;;1.85;1.65;;;22.20;47.00;;;;;;5115397;28;20043;-58
2021/12/15 10:40:15;;;;;;;2.30;1.73;;;22.20;47.00;;;;;;5097116;28;20080;-57
2021/12/15 10:42:41;;;;;;;2.75;1.48;;;22.20;47.00;;;;;;5115146;28;20008;-55
2021/12/15 10:45:09;;;;;;;4.00;1.98;;;22.20;47.00;;;;;;5114892;28;20016;-54
2021/12/15 10:47:43;;;;;;;2.88;1.80;;;22.20;47.10;;;;;;5096811;28;20011;-57
2021/12/15 10:50:18;;;;;;;2.22;1.70;;;22.20;47.00;;;;;;5115419;28;20022;-54
2021/12/15 10:53:04;;;;;;;2.30;1.67;;;22.20;47.10;;;;;;5114798;28;20431;-55
2021/12/15 10:55:37;;;;;;;2.17;1.75;;;22.20;47.10;;;;;;5096685;28;20084;-57
2021/12/15 10:58:36;;;;;;;2.40;1.70;;;22.20;47.00;;;;;;5115003;28;20057;-55
2021/12/15 11:01:05;;;;;;;2.22;1.92;;;22.20;46.90;;;;;;5106408;28;20114;-56
2021/12/15 11:03:35;;;;;;;1.95;1.75;;;22.20;47.00;;;;;;5096752;28;20015;-56
2021/12/15 11:06:22;;;;;;;1.63;1.50;;;22.30;47.00;;;;;;5115168;28;20095;-55
2021/12/15 11:08:48;;;;;;;3.83;1.98;;;22.30;47.00;;;;;;5114743;28;20498;-55
2021/12/15 11:11:28;;;;;;;2.45;1.70;;;22.20;46.90;;;;;;5115545;28;20022;-56
2021/12/15 11:13:54;;;;;;;1.98;1.70;;;22.30;46.90;;;;;;5098069;28;20030;-56
2021/12/15 11:16:32;;;;;;;2.47;1.40;;;22.20;46.90;;;;;;5114860;28;20106;-55
2021/12/15 11:18:58;;;;;;;1.80;1.70;;;22.30;47.00;;;;;;5115009;28;20020;-56
2021/12/15 11:21:30;;;;;;;1.77;1.50;;;22.30;46.90;;;;;;5114961;28;20100;-57
2021/12/15 11:23:56;;;;;;;2.50;2.00;;;22.20;46.90;;;;;;5114821;28;20024;-55
2021/12/15 11:26:23;;;;;;;1.85;1.67;;;22.30;47.00;;;;;;5114801;28;20185;-56
2021/12/15 11:28:50;;;;;;;1.65;1.55;;;22.30;47.00;;;;;;5115360;28;20008;-56
2021/12/15 11:31:21;;;;;;;2.88;1.80;;;22.30;46.90;;;;;;5114669;28;20107;-56
2021/12/15 11:33:55;;;;;;;2.28;1.50;;;22.20;46.90;;;;;;5115073;28;20069;-56
2021/12/15 11:36:44;;;;;;;2.08;1.88;;;22.20;47.00;;;;;;5114723;28;20107;-56
2021/12/15 11:39:18;;;;;;;2.05;1.67;;;22.20;47.00;;;;;;5114441;28;20016;-55
2021/12/15 11:41:46;;;;;;;2.75;1.75;;;22.20;47.20;;;;;;5114452;28;20020;-56
2021/12/15 11:44:17;;;;;;;2.65;1.60;;;22.10;47.20;;;;;;5096297;28;20675;-56
2021/12/15 11:46:44;;;;;;;1.95;1.77;;;22.10;47.30;;;;;;5115046;28;20015;-56
2021/12/15 11:49:21;;;;;;;2.15;1.58;;;22.10;47.40;;;;;;5114390;28;20012;-56
2021/12/15 11:51:54;;;;;;;1.77;1.60;;;22.00;47.40;;;;;;5115927;28;20055;-56
2021/12/15 11:54:28;;;;;;;1.85;1.60;;;22.00;47.50;;;;;;5096383;28;20011;-56
2021/12/15 11:57:14;;;;;;;2.55;1.70;;;22.00;47.60;;;;;;5114435;28;20039;-55
2021/12/15 11:59:49;;;;;;;1.75;1.50;;;21.90;47.70;;;;;;5114791;28;20011;-55
2021/12/15 12:02:24;;;;;;;1.65;1.50;;;21.80;47.80;;;;;;5114650;28;20008;-57
2021/12/15 12:05:01;;;;;;;1.50;1.35;;;21.80;47.90;;;;;;5114424;28;20023;-54
2021/12/15 12:07:42;;;;;;;2.47;2.08;;;21.80;48.00;;;;;;5114151;28;20103;-54
2021/12/15 12:10:21;;;;;;;2.83;1.88;;;21.70;48.10;;;;;;5092368;28;20505;-55
2021/12/15 12:12:54;;;;;;;2.38;1.77;;;21.70;48.20;;;;;;5093692;28;20016;-54
2021/12/15 12:15:24;;;;;;;2.00;1.80;;;21.70;48.30;;;;;;5093696;28;20058;-55
2021/12/15 12:17:51;;;;;;;2.13;1.77;;;21.60;48.40;;;;;;5093882;28;20008;-57
2021/12/15 12:20:17;;;;;;;1.73;1.40;;;21.60;48.50;;;;;;5093307;28;20095;-56
2021/12/15 12:22:45;;;;;;;1.95;1.70;;;21.50;48.50;;;;;;5093715;28;20022;-54
2021/12/15 12:25:14;;;;;;;2.13;1.80;;;21.50;48.60;;;;;;5093803;28;20496;-55
2021/12/15 12:27:42;;;;;;;2.08;1.77;;;21.50;48.70;;;;;;5093567;28;20013;-56
2021/12/15 12:30:11;;;;;;;2.20;1.95;;;21.50;48.70;;;;;;5091907;28;20023;-55
2021/12/15 12:32:37;;;;;;;4.10;1.77;;;21.50;49.20;;;;;;5093119;28;20485;-55
2021/12/15 12:35:05;;;;;;;1.83;1.60;;;21.40;48.90;;;;;;5092095;28;20012;-56
2021/12/15 12:37:31;;;;;;;2.03;1.63;;;21.40;49.00;;;;;;5093539;28;20021;-56
2021/12/15 12:40:04;;;;;;;1.90;1.70;;;21.40;49.10;;;;;;5075195;28;20058;-56
2021/12/15 12:42:38;;;;;;;4.40;1.98;;;21.30;49.10;;;;;;5093138;28;20027;-56
2021/12/15 12:45:14;;;;;;;4.47;1.80;;;21.30;49.10;;;;;;5092987;28;20060;-55
2021/12/15 12:47:56;;;;;;;2.47;1.85;;;21.30;49.20;;;;;;5093081;28;20107;-56
2021/12/15 13:01:12;;;;;;;2.10;1.90;;;21.20;49.30;;;;;;5097014;28;20024;-55
2021/12/15 13:03:43;;;;;;;2.10;1.73;;;21.20;49.40;;;;;;5096886;28;20019;-55
2021/12/15 13:06:19;;;;;;;1.98;1.70;;;21.10;49.50;;;;;;5096959;28;20012;-54
2021/12/15 13:09:05;;;;;;;2.55;2.05;;;21.10;49.50;;;;;;5099692;28;20093;-55
2021/12/15 13:11:36;;;;;;;2.17;1.65;;;21.10;49.50;;;;;;5117063;28;20028;-54
2021/12/15 13:14:12;;;;;;;2.35;1.90;;;21.10;49.60;;;;;;5117061;28;20461;-55
2021/12/15 13:16:50;;;;;;;3.25;1.90;;;21.00;49.60;;;;;;5117415;28;20011;-55
2021/12/15 13:19:42;;;;;;;1.88;1.60;;;21.00;49.60;;;;;;5117214;28;20049;-55
2021/12/15 13:30:54;;;;;;;2.05;1.45;;;20.90;49.90;;;;;;5116734;28;20072;-55
2021/12/15 13:33:37;;;;;;;1.85;1.70;;;20.90;50.00;;;;;;5116634;28;20023;-55
2021/12/15 13:36:03;;;;;;;2.00;1.80;;;20.90;50.10;;;;;;5116797;28;20019;-55
2021/12/15 13:39:19;;;;;;;3.72;1.67;;;20.80;50.70;;;;;;5116750;28;20081;-55
2021/12/15 13:42:08;;;;;;;2.03;1.63;;;20.80;50.20;;;;;;5013824;28;20033;-56
2021/12/15 13:44:43;;;;;;;1.85;1.60;;;20.80;50.30;;;;;;5014037;28;20086;-55
2021/12/15 13:47:09;;;;;;;1.88;1.67;;;20.70;50.30;;;;;;5014100;28;20076;-56
2021/12/15 13:49:53;;;;;;;2.10;1.85;;;20.70;50.30;;;;;;5013925;28;20034;-55
2021/12/15 13:52:38;;;;;;;2.20;1.70;;;20.70;50.40;;;;;;5013861;28;20026;-55
2021/12/15 13:55:19;;;;;;;1.85;1.60;;;20.70;50.50;;;;;;5013816;28;20021;-54
2021/12/15 13:57:44;;;;;;;1.92;1.73;;;20.70;50.50;;;;;;5013795;28;20068;-55
2021/12/15 14:00:15;;;;;;;1.67;1.58;;;20.60;50.40;;;;;;5013596;28;20555;-55
2021/12/15 14:03:03;;;;;;;2.10;1.90;;;20.60;50.40;;;;;;5013541;28;20046;-53
2021/12/15 14:05:39;;;;;;;1.73;1.63;;;20.60;50.50;;;;;;4999992;28;20029;-54
2021/12/15 14:08:05;;;;;;;2.40;1.88;;;20.60;50.40;;;;;;5012596;28;20473;-54
2021/12/15 14:10:34;;;;;;;1.98;1.75;;;20.60;50.60;;;;;;5012868;28;20057;-54
2021/12/15 14:13:02;;;;;;;2.45;1.77;;;20.60;50.70;;;;;;5013381;28;20014;-54
2021/12/15 14:15:37;;;;;;;1.70;1.60;;;20.60;50.60;;;;;;5055001;28;20039;-55
2021/12/15 14:18:02;;;;;;;2.13;1.73;;;20.60;50.60;;;;;;5115731;28;20054;-56
2021/12/15 14:20:30;;;;;;;1.80;1.70;;;20.50;50.60;;;;;;5115810;28;20023;-57
2021/12/15 14:22:56;;;;;;;1.85;1.60;;;20.50;50.70;;;;;;5097386;28;20039;-55
2021/12/15 14:25:25;;;;;;;2.00;1.52;;;20.50;50.80;;;;;;5115553;28;20060;-55
2021/12/15 14:27:50;;;;;;;1.90;1.67;;;20.40;50.80;;;;;;5080505;28;20039;-55
2021/12/15 14:30:17;;;;;;;1.98;1.77;;;20.40;50.90;;;;;;5115725;28;20027;-55
2021/12/15 14:32:44;;;;;;;2.08;1.88;;;20.30;51.00;;;;;;5115708;28;20024;-56